createdAt,value
2023-01-19T00:00:51.072Z,-1.12
2023-01-19T00:01:51.067Z,-1.09
2023-01-19T00:02:51.123Z,-1.05
2023-01-19T00:03:51.050Z,-1.00
2023-01-19T00:04:51.041Z,-1.02
2023-01-19T00:05:51.035Z,-1.02
2023-01-19T00:06:51.027Z,-1.03
2023-01-19T00:07:50.987Z,-1.06
2023-01-19T00:08:50.990Z,-1.12
2023-01-19T00:09:50.983Z,-1.10
2023-01-19T00:10:50.959Z,-1.09
2023-01-19T00:11:50.948Z,-1.09
2023-01-19T00:12:50.949Z,-1.09
2023-01-19T00:13:51.151Z,-1.09
2023-01-19T00:14:50.910Z,-1.10
2023-01-19T00:15:50.917Z,-1.10
2023-01-19T00:16:50.894Z,-1.09
2023-01-19T00:17:50.875Z,-1.09
2023-01-19T00:18:50.862Z,-1.07
2023-01-19T00:19:50.850Z,-1.05
2023-01-19T00:20:50.838Z,-1.02
2023-01-19T00:21:50.820Z,-1.02
2023-01-19T00:22:50.826Z,-1.02
2023-01-19T00:23:50.798Z,-1.02
2023-01-19T00:24:50.791Z,-1.00
2023-01-19T00:25:50.768Z,-1.03
2023-01-19T00:26:50.777Z,-1.03
2023-01-19T00:27:50.747Z,-1.00
2023-01-19T00:28:50.731Z,-1.00
2023-01-19T00:29:50.724Z,-1.00
2023-01-19T00:30:50.697Z,-1.02
2023-01-19T00:31:50.732Z,-1.05
2023-01-19T00:32:50.693Z,-1.02
2023-01-19T00:33:50.669Z,-1.03
2023-01-19T00:34:50.661Z,-1.03
2023-01-19T00:35:50.656Z,-1.03
2023-01-19T00:36:50.648Z,-1.05
2023-01-19T00:37:50.624Z,-1.06
2023-01-19T00:38:50.629Z,-1.09
2023-01-19T00:39:50.587Z,-1.12
2023-01-19T00:40:50.573Z,-1.18
2023-01-19T00:41:50.588Z,-1.24
2023-01-19T00:42:50.568Z,-1.30
2023-01-19T00:43:50.540Z,-1.35
2023-01-19T00:44:50.537Z,-1.39
2023-01-19T00:45:50.572Z,-1.41
2023-01-19T00:46:50.516Z,-1.42
2023-01-19T00:47:50.488Z,-1.46
2023-01-19T00:48:50.486Z,-1.48
2023-01-19T00:49:50.478Z,-1.49
2023-01-19T00:50:50.469Z,-1.49
2023-01-19T00:51:50.453Z,-1.49
2023-01-19T00:52:50.429Z,-1.53
2023-01-19T00:53:50.419Z,-1.51
2023-01-19T00:54:50.426Z,-1.53
2023-01-19T00:55:50.401Z,-1.49
2023-01-19T00:56:50.407Z,-1.48
2023-01-19T00:57:50.376Z,-1.48
2023-01-19T00:58:50.458Z,-1.45
2023-01-19T00:59:50.353Z,-1.43
2023-01-19T01:00:50.418Z,-1.43
2023-01-19T01:01:50.413Z,-1.41
2023-01-19T01:02:50.338Z,-1.41
2023-01-19T01:03:50.288Z,-1.38
2023-01-19T01:04:50.312Z,-1.35
2023-01-19T01:05:50.267Z,-1.33
2023-01-19T01:06:50.248Z,-1.31
2023-01-19T01:07:50.260Z,-1.35
2023-01-19T01:08:50.238Z,-1.35
2023-01-19T01:09:50.228Z,-1.36
2023-01-19T01:10:50.207Z,-1.36
2023-01-19T01:11:50.201Z,-1.36
2023-01-19T01:12:55.132Z,-1.36
2023-01-19T01:13:51.167Z,-1.38
2023-01-19T01:14:50.180Z,-1.39
2023-01-19T01:15:50.149Z,-1.39
2023-01-19T01:16:50.203Z,-1.39
2023-01-19T01:17:50.139Z,-1.39
2023-01-19T01:18:50.108Z,-1.36
2023-01-19T01:19:50.089Z,-1.39
2023-01-19T01:20:50.117Z,-1.39
2023-01-19T01:21:50.078Z,-1.39
2023-01-19T01:22:50.070Z,-1.39
2023-01-19T01:23:50.037Z,-1.39
2023-01-19T01:24:50.045Z,-1.39
2023-01-19T01:25:50.084Z,-1.42
2023-01-19T01:26:50.016Z,-1.43
2023-01-19T01:27:50.010Z,-1.46
2023-01-19T01:28:49.996Z,-1.45
2023-01-19T01:29:49.977Z,-1.46
2023-01-19T01:30:49.997Z,-1.48
2023-01-19T01:31:49.984Z,-1.53
2023-01-19T01:32:49.947Z,-1.54
2023-01-19T01:33:49.920Z,-1.59
2023-01-19T01:34:49.926Z,-1.64
2023-01-19T01:35:49.924Z,-1.69
2023-01-19T01:36:49.891Z,-1.72
2023-01-19T01:37:49.886Z,-1.77
2023-01-19T01:38:49.868Z,-1.81
2023-01-19T01:39:49.865Z,-1.87
2023-01-19T01:40:49.837Z,-1.92
2023-01-19T01:41:49.818Z,-1.95
2023-01-19T01:42:49.838Z,-2.00
2023-01-19T01:43:50.088Z,-2.00
2023-01-19T01:44:50.026Z,-2.05
2023-01-19T01:45:49.818Z,-2.08
2023-01-19T01:46:49.768Z,-2.11
2023-01-19T01:47:49.758Z,-2.14
2023-01-19T01:48:49.740Z,-2.17
2023-01-19T01:49:49.728Z,-2.20
2023-01-19T01:50:49.727Z,-2.21
2023-01-19T01:51:49.721Z,-2.23
2023-01-19T01:53:06.989Z,-2.24
2023-01-19T01:53:50.688Z,-2.26
2023-01-19T01:54:49.668Z,-2.26
2023-01-19T01:55:49.667Z,-2.28
2023-01-19T01:56:49.689Z,-2.28
2023-01-19T01:57:49.649Z,-2.24
2023-01-19T01:58:49.630Z,-2.20
2023-01-19T01:59:49.600Z,-2.16
2023-01-19T02:00:49.646Z,-2.10
2023-01-19T02:01:49.619Z,-2.02
2023-01-19T02:02:49.577Z,-2.00
2023-01-19T02:03:49.559Z,-1.99
2023-01-19T02:04:49.537Z,-1.98
2023-01-19T02:05:49.533Z,-1.96
2023-01-19T02:06:49.518Z,-1.96
2023-01-19T02:07:49.497Z,-2.00
2023-01-19T02:08:49.509Z,-2.03
2023-01-19T02:09:49.481Z,-2.06
2023-01-19T02:10:49.466Z,-2.11
2023-01-19T02:11:49.475Z,-2.14
2023-01-19T02:12:49.457Z,-2.17
2023-01-19T02:13:49.472Z,-2.21
2023-01-19T02:14:49.418Z,-2.26
2023-01-19T02:15:49.396Z,-2.29
2023-01-19T02:16:49.442Z,-2.33
2023-01-19T02:17:49.425Z,-2.36
2023-01-19T02:18:49.389Z,-2.40
2023-01-19T02:19:49.358Z,-2.42
2023-01-19T02:20:49.349Z,-2.43
2023-01-19T02:21:49.336Z,-2.43
2023-01-19T02:22:49.355Z,-2.47
2023-01-19T02:23:49.316Z,-2.47
2023-01-19T02:24:49.322Z,-2.51
2023-01-19T02:25:49.293Z,-2.53
2023-01-19T02:26:49.283Z,-2.54
2023-01-19T02:27:49.268Z,-2.54
2023-01-19T02:28:49.243Z,-2.56
2023-01-19T02:29:49.315Z,-2.57
2023-01-19T02:30:49.309Z,-2.57
2023-01-19T02:31:49.230Z,-2.60
2023-01-19T02:32:49.198Z,-2.63
2023-01-19T02:33:49.195Z,-2.64
2023-01-19T02:34:49.188Z,-2.66
2023-01-19T02:35:49.176Z,-2.69
2023-01-19T02:36:49.155Z,-2.72
2023-01-19T02:37:49.132Z,-2.74
2023-01-19T02:38:49.127Z,-2.76
2023-01-19T02:39:49.117Z,-2.76
2023-01-19T02:40:49.123Z,-2.79
2023-01-19T02:41:49.095Z,-2.79
2023-01-19T02:42:49.067Z,-2.82
2023-01-19T02:43:49.073Z,-2.81
2023-01-19T02:44:49.096Z,-2.81
2023-01-19T02:45:49.057Z,-2.82
2023-01-19T02:46:49.034Z,-2.81
2023-01-19T02:47:49.017Z,-2.82
2023-01-19T02:48:49.010Z,-2.85
2023-01-19T02:49:49.042Z,-2.85
2023-01-19T02:50:48.985Z,-2.81
2023-01-19T02:51:48.970Z,-2.79
2023-01-19T02:52:48.957Z,-2.81
2023-01-19T02:53:48.947Z,-2.81
2023-01-19T02:54:48.926Z,-2.79
2023-01-19T02:55:48.933Z,-2.78
2023-01-19T02:56:48.900Z,-2.78
2023-01-19T02:57:48.895Z,-2.78
2023-01-19T02:58:48.898Z,-2.79
2023-01-19T02:59:48.855Z,-2.78
2023-01-19T03:00:48.916Z,-2.76
2023-01-19T03:01:48.929Z,-2.75
2023-01-19T03:02:49.028Z,-2.72
2023-01-19T03:03:48.829Z,-2.71
2023-01-19T03:04:48.803Z,-2.71
2023-01-19T03:05:48.802Z,-2.69
2023-01-19T03:06:48.777Z,-2.68
2023-01-19T03:07:48.761Z,-2.64
2023-01-19T03:08:48.759Z,-2.61
2023-01-19T03:09:48.795Z,-2.57
2023-01-19T03:10:48.746Z,-2.53
2023-01-19T03:11:48.747Z,-2.50
2023-01-19T03:12:48.696Z,-2.47
2023-01-19T03:13:48.688Z,-2.47
2023-01-19T03:14:48.687Z,-2.45
2023-01-19T03:15:48.719Z,-2.40
2023-01-19T03:16:48.869Z,-2.40
2023-01-19T03:17:48.645Z,-2.38
2023-01-19T03:18:48.644Z,-2.36
2023-01-19T03:19:48.624Z,-2.38
2023-01-19T03:20:48.609Z,-2.38
2023-01-19T03:21:48.606Z,-2.35
2023-01-19T03:22:48.586Z,-2.35
2023-01-19T03:23:48.567Z,-2.36
2023-01-19T03:24:48.702Z,-2.36
2023-01-19T03:25:48.566Z,-2.35
2023-01-19T03:26:48.530Z,-2.36
2023-01-19T03:27:48.519Z,-2.36
2023-01-19T03:28:48.516Z,-2.35
2023-01-19T03:29:48.511Z,-2.35
2023-01-19T03:30:48.557Z,-2.36
2023-01-19T03:31:48.477Z,-2.38
2023-01-19T03:32:48.472Z,-2.38
2023-01-19T03:33:48.466Z,-2.39
2023-01-19T03:34:48.425Z,-2.38
2023-01-19T03:35:48.448Z,-2.36
2023-01-19T03:36:48.446Z,-2.39
2023-01-19T03:37:48.397Z,-2.42
2023-01-19T03:38:48.391Z,-2.45
2023-01-19T03:39:48.386Z,-2.45
2023-01-19T03:40:48.385Z,-2.42
2023-01-19T03:41:48.345Z,-2.40
2023-01-19T03:42:48.337Z,-2.38
2023-01-19T03:43:48.315Z,-2.39
2023-01-19T03:44:48.316Z,-2.43
2023-01-19T03:45:48.333Z,-2.42
2023-01-19T03:46:48.297Z,-2.40
2023-01-19T03:47:48.269Z,-2.40
2023-01-19T03:48:48.255Z,-2.40
2023-01-19T03:49:48.266Z,-2.42
2023-01-19T04:03:15.966Z,-2.45
2023-01-19T04:04:15.902Z,-2.47
2023-01-19T04:05:15.911Z,-2.47
2023-01-19T04:06:15.894Z,-2.48
2023-01-19T04:07:15.873Z,-2.47
2023-01-19T04:08:15.853Z,-2.47
2023-01-19T04:09:16.783Z,-2.48
2023-01-19T04:10:15.830Z,-2.48
2023-01-19T04:11:15.833Z,-2.48
2023-01-19T04:12:15.815Z,-2.48
2023-01-19T04:13:15.805Z,-2.48
2023-01-19T04:14:15.795Z,-2.50
2023-01-19T04:15:15.803Z,-2.53
2023-01-19T04:16:15.795Z,-2.53
2023-01-19T04:17:15.795Z,-2.53
2023-01-19T04:18:23.250Z,-2.54
2023-01-19T04:19:15.734Z,-2.51
2023-01-19T04:20:15.881Z,-2.53
2023-01-19T04:21:15.727Z,-2.54
2023-01-19T04:22:15.696Z,-2.57
2023-01-19T04:23:15.706Z,-2.57
2023-01-19T04:24:15.662Z,-2.58
2023-01-19T04:25:15.773Z,-2.60
2023-01-19T04:26:15.673Z,-2.61
2023-01-19T04:27:15.630Z,-2.60
2023-01-19T04:28:15.604Z,-2.60
2023-01-19T04:29:15.789Z,-2.60
2023-01-19T04:30:15.584Z,-2.58
2023-01-19T04:31:15.665Z,-2.57
2023-01-19T04:32:15.591Z,-2.57
2023-01-19T04:33:15.550Z,-2.57
2023-01-19T04:34:15.544Z,-2.56
2023-01-19T04:35:15.541Z,-2.56
2023-01-19T04:36:15.531Z,-2.58
2023-01-19T04:37:15.518Z,-2.58
2023-01-19T04:38:15.480Z,-2.57
2023-01-19T04:39:15.482Z,-2.58
2023-01-19T04:40:15.469Z,-2.58
2023-01-19T04:41:15.471Z,-2.61
2023-01-19T04:42:15.441Z,-2.63
2023-01-19T04:43:15.443Z,-2.63
2023-01-19T04:44:15.691Z,-2.61
2023-01-19T04:45:15.445Z,-2.61
2023-01-19T04:46:15.561Z,-2.64
2023-01-19T04:47:15.382Z,-2.64
2023-01-19T04:48:15.374Z,-2.66
2023-01-19T04:49:15.361Z,-2.69
2023-01-19T04:50:15.333Z,-2.72
2023-01-19T04:51:15.334Z,-2.71
2023-01-19T04:52:15.332Z,-2.69
2023-01-19T04:53:15.309Z,-2.71
2023-01-19T04:54:15.371Z,-2.72
2023-01-19T04:55:15.273Z,-2.72
2023-01-19T04:56:15.293Z,-2.74
2023-01-19T04:57:15.277Z,-2.74
2023-01-19T04:58:15.226Z,-2.78
2023-01-19T04:59:15.232Z,-2.85
2023-01-19T05:00:15.212Z,-2.82
2023-01-19T05:01:15.262Z,-2.82
2023-01-19T05:02:15.231Z,-2.81
2023-01-19T05:03:15.280Z,-2.79
2023-01-19T05:04:15.159Z,-2.76
2023-01-19T05:05:15.161Z,-2.75
2023-01-19T05:06:15.152Z,-2.75
2023-01-19T05:07:15.133Z,-2.75
2023-01-19T05:08:15.184Z,-2.72
2023-01-19T05:09:15.119Z,-2.71
2023-01-19T05:10:15.080Z,-2.74
2023-01-19T05:11:15.108Z,-2.74
2023-01-19T05:12:15.081Z,-2.74
2023-01-19T05:13:15.110Z,-2.74
2023-01-19T05:14:15.039Z,-2.75
2023-01-19T05:15:15.036Z,-2.72
2023-01-19T05:16:15.032Z,-2.75
2023-01-19T05:17:15.016Z,-2.75
2023-01-19T05:18:15.014Z,-2.75
2023-01-19T05:19:14.999Z,-2.74
2023-01-19T05:20:16.363Z,-2.74
2023-01-19T05:21:14.952Z,-2.74
2023-01-19T05:22:14.939Z,-2.75
2023-01-19T05:23:15.035Z,-2.75
2023-01-19T05:24:14.914Z,-2.76
2023-01-19T05:25:14.890Z,-2.76
2023-01-19T05:26:14.889Z,-2.75
2023-01-19T05:27:14.880Z,-2.71
2023-01-19T05:28:14.887Z,-2.69
2023-01-19T05:29:14.849Z,-2.69
2023-01-19T05:30:14.831Z,-2.66
2023-01-19T05:31:14.950Z,-2.63
2023-01-19T05:32:14.847Z,-2.60
2023-01-19T05:33:14.798Z,-2.60
2023-01-19T05:34:14.778Z,-2.57
2023-01-19T05:35:16.564Z,-2.54
2023-01-19T05:36:14.784Z,-2.54
2023-01-19T05:37:14.762Z,-2.54
2023-01-19T05:38:17.060Z,-2.54
2023-01-19T05:39:14.742Z,-2.54
2023-01-19T05:40:14.718Z,-2.53
2023-01-19T05:41:14.728Z,-2.54
2023-01-19T05:42:14.681Z,-2.57
2023-01-19T05:43:14.671Z,-2.57
2023-01-19T05:44:14.678Z,-2.60
2023-01-19T05:45:14.656Z,-2.61
2023-01-19T05:46:14.719Z,-2.61
2023-01-19T05:47:14.626Z,-2.63
2023-01-19T05:48:14.617Z,-2.63
2023-01-19T05:49:14.608Z,-2.64
2023-01-19T05:50:14.600Z,-2.66
2023-01-19T05:51:14.581Z,-2.69
2023-01-19T05:52:14.557Z,-2.69
2023-01-19T05:53:14.560Z,-2.72
2023-01-19T05:54:14.538Z,-2.72
2023-01-19T05:55:15.529Z,-2.74
2023-01-19T05:56:14.519Z,-2.76
2023-01-19T05:57:14.497Z,-2.76
2023-01-19T05:58:14.518Z,-2.75
2023-01-19T05:59:14.477Z,-2.72
2023-01-19T06:00:14.479Z,-2.71
2023-01-19T06:01:14.508Z,-2.71
2023-01-19T06:02:14.468Z,-2.68
2023-01-19T06:03:14.471Z,-2.68
2023-01-19T06:04:14.409Z,-2.69
2023-01-19T06:05:14.411Z,-2.69
2023-01-19T06:06:14.397Z,-2.71
2023-01-19T06:07:14.369Z,-2.74
2023-01-19T06:08:14.357Z,-2.74
2023-01-19T06:09:14.363Z,-2.75
2023-01-19T06:10:14.327Z,-2.78
2023-01-19T06:11:14.381Z,-2.79
2023-01-19T06:12:14.307Z,-2.82
2023-01-19T06:13:14.298Z,-2.82
2023-01-19T06:14:14.300Z,-2.87
2023-01-19T06:15:14.288Z,-2.92
2023-01-19T06:16:14.317Z,-2.94
2023-01-19T06:17:14.259Z,-2.99
2023-01-19T06:18:14.238Z,-3.00
2023-01-19T06:19:14.231Z,-3.02
2023-01-19T06:20:14.256Z,-3.08
2023-01-19T06:21:14.286Z,-3.11
2023-01-19T06:22:14.201Z,-3.14
2023-01-19T06:23:14.182Z,-3.15
2023-01-19T06:24:14.582Z,-3.18
2023-01-19T06:25:14.164Z,-3.20
2023-01-19T06:26:14.147Z,-3.25
2023-01-19T06:27:14.147Z,-3.28
2023-01-19T06:28:14.097Z,-3.28
2023-01-19T06:29:14.099Z,-3.32
2023-01-19T06:30:14.099Z,-3.33
2023-01-19T06:31:14.139Z,-3.36
2023-01-19T06:32:14.086Z,-3.39
2023-01-19T06:33:14.049Z,-3.41
2023-01-19T06:34:14.043Z,-3.41
2023-01-19T06:35:14.027Z,-3.39
2023-01-19T06:36:14.023Z,-3.39
2023-01-19T06:37:14.018Z,-3.38
2023-01-19T06:38:13.996Z,-3.35
2023-01-19T06:39:13.987Z,-3.32
2023-01-19T06:40:14.615Z,-3.32
2023-01-19T06:41:13.957Z,-3.28
2023-01-19T06:42:13.953Z,-3.29
2023-01-19T06:43:13.959Z,-3.28
2023-01-19T06:44:13.920Z,-3.25
2023-01-19T06:45:13.930Z,-3.28
2023-01-19T06:46:13.947Z,-3.28
2023-01-19T06:47:15.353Z,-3.29
2023-01-19T06:48:13.858Z,-3.25
2023-01-19T06:49:13.858Z,-3.26
2023-01-19T06:50:13.846Z,-3.28
2023-01-19T06:51:13.830Z,-3.29
2023-01-19T06:52:13.818Z,-3.31
2023-01-19T06:53:13.825Z,-3.33
2023-01-19T06:54:13.783Z,-3.36
2023-01-19T06:55:13.821Z,-3.33
2023-01-19T06:56:13.800Z,-3.31
2023-01-19T06:57:13.768Z,-3.28
2023-01-19T06:58:13.758Z,-3.29
2023-01-19T06:59:13.728Z,-3.29
2023-01-19T07:00:13.724Z,-3.28
2023-01-19T07:01:13.853Z,-3.28
2023-01-19T07:02:26.728Z,-3.25
2023-01-19T07:03:14.700Z,-3.20
2023-01-19T07:04:13.689Z,-3.13
2023-01-19T07:05:13.677Z,-3.08
2023-01-19T07:06:13.641Z,-3.07
2023-01-19T07:07:13.637Z,-3.02
2023-01-19T07:08:13.626Z,-3.00
2023-01-19T07:09:15.613Z,-3.00
2023-01-19T07:10:13.591Z,-3.04
2023-01-19T07:11:26.319Z,-3.02
2023-01-19T07:12:14.574Z,-3.02
2023-01-19T07:13:13.557Z,-3.04
2023-01-19T07:14:13.547Z,-3.02
2023-01-19T07:15:13.539Z,-3.04
2023-01-19T07:16:13.626Z,-3.02
2023-01-19T07:17:13.518Z,-2.99
2023-01-19T07:18:13.507Z,-2.97
2023-01-19T07:19:13.495Z,-3.00
2023-01-19T07:20:13.498Z,-3.00
2023-01-19T07:21:13.446Z,-3.04
2023-01-19T07:22:13.454Z,-3.04
2023-01-19T07:23:13.438Z,-3.04
2023-01-19T07:24:13.408Z,-3.02
2023-01-19T07:25:13.416Z,-3.02
2023-01-19T07:26:13.379Z,-3.02
2023-01-19T07:27:13.390Z,-3.00
2023-01-19T07:28:13.370Z,-2.96
2023-01-19T07:29:13.346Z,-2.94
2023-01-19T07:30:13.346Z,-2.92
2023-01-19T07:31:13.413Z,-2.89
2023-01-19T07:32:13.325Z,-2.89
2023-01-19T07:33:13.305Z,-2.89
2023-01-19T07:34:13.315Z,-2.87
2023-01-19T07:35:13.281Z,-2.90
2023-01-19T07:36:13.277Z,-2.92
2023-01-19T07:37:13.254Z,-2.93
2023-01-19T07:38:13.262Z,-2.94
2023-01-19T07:39:13.227Z,-2.96
2023-01-19T07:40:13.209Z,-2.97
2023-01-19T07:41:13.193Z,-3.02
2023-01-19T07:42:13.196Z,-3.02
2023-01-19T07:43:13.190Z,-3.00
2023-01-19T07:44:13.170Z,-3.04
2023-01-19T07:45:13.161Z,-3.04
2023-01-19T07:46:13.144Z,-3.05
2023-01-19T07:47:13.106Z,-3.05
2023-01-19T07:48:13.109Z,-3.07
2023-01-19T07:49:13.104Z,-3.07
2023-01-19T07:50:13.081Z,-3.10
2023-01-19T07:51:13.230Z,-3.10
2023-01-19T07:52:13.079Z,-3.04
2023-01-19T07:53:13.040Z,-3.00
2023-01-19T07:54:13.046Z,-2.96
2023-01-19T07:55:13.008Z,-2.93
2023-01-19T07:56:13.010Z,-2.92
2023-01-19T07:57:12.988Z,-2.93
2023-01-19T07:58:12.980Z,-2.92
2023-01-19T07:59:12.978Z,-2.92
2023-01-19T08:00:12.948Z,-2.87
2023-01-19T08:01:13.037Z,-2.86
2023-01-19T08:02:13.775Z,-2.86
2023-01-19T08:03:12.908Z,-2.86
2023-01-19T08:04:12.931Z,-2.82
2023-01-19T08:05:12.899Z,-2.85
2023-01-19T08:06:12.880Z,-2.82
2023-01-19T08:07:12.904Z,-2.81
2023-01-19T08:08:12.845Z,-2.81
2023-01-19T08:09:12.837Z,-2.82
2023-01-19T08:10:12.845Z,-2.81
2023-01-19T08:11:12.818Z,-2.79
2023-01-19T08:12:12.846Z,-2.78
2023-01-19T08:13:12.797Z,-2.74
2023-01-19T08:14:12.777Z,-2.68
2023-01-19T08:15:12.778Z,-2.64
2023-01-19T08:16:12.786Z,-2.60
2023-01-19T08:17:12.729Z,-2.57
2023-01-19T08:18:12.732Z,-2.54
2023-01-19T08:19:12.701Z,-2.53
2023-01-19T08:20:12.710Z,-2.47
2023-01-19T08:21:12.685Z,-2.47
2023-01-19T08:22:12.694Z,-2.43
2023-01-19T08:23:12.669Z,-2.40
2023-01-19T08:24:12.702Z,-2.38
2023-01-19T08:25:12.646Z,-2.33
2023-01-19T08:26:12.627Z,-2.28
2023-01-19T08:27:12.618Z,-2.21
2023-01-19T08:28:12.624Z,-2.18
2023-01-19T08:29:12.593Z,-2.17
2023-01-19T08:30:12.591Z,-2.17
2023-01-19T08:31:20.453Z,-2.16
2023-01-19T08:32:13.680Z,-2.11
2023-01-19T08:33:12.567Z,-2.08
2023-01-19T08:34:12.546Z,-2.05
2023-01-19T08:35:12.520Z,-1.99
2023-01-19T08:36:12.509Z,-1.96
2023-01-19T08:37:12.512Z,-1.92
2023-01-19T08:38:12.529Z,-1.92
2023-01-19T08:39:12.455Z,-1.88
2023-01-19T08:40:12.505Z,-1.84
2023-01-19T08:41:12.443Z,-1.80
2023-01-19T08:42:12.424Z,-1.78
2023-01-19T08:43:12.432Z,-1.75
2023-01-19T08:44:12.401Z,-1.72
2023-01-19T08:45:12.395Z,-1.66
2023-01-19T08:46:12.431Z,-1.60
2023-01-19T08:47:12.402Z,-1.60
2023-01-19T08:48:12.351Z,-1.59
2023-01-19T08:49:12.334Z,-1.53
2023-01-19T08:50:12.348Z,-1.48
2023-01-19T08:51:12.309Z,-1.42
2023-01-19T08:52:12.352Z,-1.33
2023-01-19T08:53:12.310Z,-1.24
2023-01-19T08:54:12.279Z,-1.17
2023-01-19T08:55:12.290Z,-1.10
2023-01-19T08:56:12.277Z,-1.10
2023-01-19T08:57:12.261Z,-1.06
2023-01-19T08:58:12.256Z,-0.86
2023-01-19T08:59:13.261Z,-0.55
2023-01-19T09:00:12.225Z,-0.24
2023-01-19T09:01:12.284Z,0.18
2023-01-19T09:02:12.261Z,0.75
2023-01-19T09:03:12.219Z,1.15
2023-01-19T09:04:12.167Z,1.51
2023-01-19T09:05:12.214Z,1.79
2023-01-19T09:06:12.129Z,1.93
2023-01-19T09:07:12.120Z,1.89
2023-01-19T09:08:12.097Z,1.94
2023-01-19T09:09:12.100Z,1.90
2023-01-19T09:10:12.094Z,1.93
2023-01-19T09:11:12.054Z,2.02
2023-01-19T09:12:12.048Z,2.34
2023-01-19T09:13:12.043Z,2.71
2023-01-19T09:14:12.064Z,3.16
2023-01-19T09:15:12.023Z,3.49
2023-01-19T09:16:12.051Z,3.83
2023-01-19T09:17:11.976Z,3.96
2023-01-19T09:18:11.977Z,3.75
2023-01-19T09:19:11.964Z,3.97
2023-01-19T09:20:11.957Z,4.24
2023-01-19T09:21:11.946Z,4.16
2023-01-19T09:22:11.919Z,4.40
2023-01-19T09:23:11.911Z,4.46
2023-01-19T09:24:11.913Z,4.70
2023-01-19T09:25:11.901Z,5.30
2023-01-19T09:26:11.880Z,5.28
2023-01-19T09:27:11.962Z,5.55
2023-01-19T09:28:11.857Z,4.83
2023-01-19T09:29:11.836Z,4.91
2023-01-19T09:30:11.836Z,5.25
2023-01-19T09:31:11.933Z,5.30
2023-01-19T09:32:11.789Z,5.38
2023-01-19T09:33:11.792Z,5.52
2023-01-19T09:34:11.767Z,5.60
2023-01-19T09:35:11.770Z,5.57
2023-01-19T09:36:11.737Z,6.01
2023-01-19T09:37:11.728Z,6.11
2023-01-19T09:38:11.727Z,6.53
2023-01-19T09:39:11.720Z,6.66
2023-01-19T09:40:11.713Z,7.16
2023-01-19T09:41:11.675Z,7.63
2023-01-19T09:42:11.687Z,7.99
2023-01-19T09:43:11.656Z,7.99
2023-01-19T09:44:11.659Z,7.99
2023-01-19T09:45:12.251Z,7.85
2023-01-19T09:46:11.663Z,6.50
2023-01-19T09:47:11.606Z,5.28
2023-01-19T10:03:27.248Z,5.81
2023-01-19T10:04:27.074Z,5.48
2023-01-19T10:05:27.073Z,5.12
2023-01-19T10:06:27.040Z,4.21
2023-01-19T10:07:27.030Z,3.96
2023-01-19T10:08:27.009Z,3.88
2023-01-19T10:09:27.000Z,3.30
2023-01-19T10:10:27.027Z,2.88
2023-01-19T10:11:34.373Z,2.95
2023-01-19T10:12:27.971Z,2.44
2023-01-19T10:13:26.950Z,1.85
2023-01-19T10:14:26.935Z,1.65
2023-01-19T10:15:26.933Z,1.58
2023-01-19T10:16:26.961Z,1.44
2023-01-19T10:17:26.903Z,1.39
2023-01-19T10:18:34.408Z,1.34
2023-01-19T10:19:26.879Z,1.37
2023-01-19T10:20:26.872Z,1.37
2023-01-19T10:21:26.849Z,1.40
2023-01-19T10:22:26.868Z,1.32
2023-01-19T10:23:26.823Z,1.25
2023-01-19T10:24:26.828Z,1.22
2023-01-19T10:25:26.840Z,1.21
2023-01-19T10:26:26.779Z,1.08
2023-01-19T10:27:26.795Z,0.98
2023-01-19T10:28:26.764Z,0.94
2023-01-19T10:29:26.780Z,0.86
2023-01-19T10:30:26.793Z,0.92
2023-01-19T10:31:26.834Z,0.86
2023-01-19T10:32:26.763Z,0.85
2023-01-19T10:33:26.719Z,0.80
2023-01-19T10:34:26.707Z,0.80
2023-01-19T10:35:26.694Z,0.80
2023-01-19T10:36:26.723Z,0.76
2023-01-19T10:37:26.680Z,0.82
2023-01-19T10:38:26.653Z,0.86
2023-01-19T10:39:26.650Z,0.85
2023-01-19T10:40:26.647Z,0.79
2023-01-19T10:41:26.627Z,0.79
2023-01-19T10:42:26.598Z,0.79
2023-01-19T10:43:26.642Z,0.79
2023-01-19T10:44:26.615Z,0.78
2023-01-19T10:45:26.663Z,0.79
2023-01-19T10:46:26.650Z,0.79
2023-01-19T10:47:26.533Z,0.75
2023-01-19T10:48:26.569Z,0.71
2023-01-19T10:49:26.513Z,0.67
2023-01-19T10:50:26.524Z,0.58
2023-01-19T10:51:26.472Z,0.53
2023-01-19T10:52:26.471Z,0.53
2023-01-19T10:53:26.472Z,0.57
2023-01-19T10:54:26.475Z,0.57
2023-01-19T10:55:26.456Z,0.53
2023-01-19T10:56:26.419Z,0.57
2023-01-19T10:57:26.416Z,0.60
2023-01-19T10:58:26.399Z,0.61
2023-01-19T10:59:26.447Z,0.64
2023-01-19T11:00:26.416Z,0.67
2023-01-19T11:01:26.555Z,0.70
2023-01-19T11:02:26.707Z,0.72
2023-01-19T11:03:26.386Z,0.71
2023-01-19T11:04:26.333Z,0.70
2023-01-19T11:05:26.311Z,0.67
2023-01-19T11:06:26.290Z,0.68
2023-01-19T11:07:26.285Z,0.71
2023-01-19T11:08:26.261Z,0.75
2023-01-19T11:09:26.254Z,0.75
2023-01-19T11:10:26.250Z,0.76
2023-01-19T11:11:26.222Z,0.75
2023-01-19T11:12:26.260Z,0.75
2023-01-19T11:13:26.193Z,0.68
2023-01-19T11:14:26.202Z,0.65
2023-01-19T11:15:26.191Z,0.65
2023-01-19T11:16:26.194Z,0.65
2023-01-19T11:17:26.167Z,0.68
2023-01-19T11:18:26.146Z,0.68
2023-01-19T11:19:26.129Z,0.68
2023-01-19T11:20:26.135Z,0.68
2023-01-19T11:21:26.136Z,0.72
2023-01-19T11:22:26.116Z,0.76
2023-01-19T11:23:26.071Z,0.80
2023-01-19T11:24:26.088Z,0.83
2023-01-19T11:25:26.066Z,0.85
2023-01-19T11:26:26.047Z,0.85
2023-01-19T11:27:26.012Z,0.86
2023-01-19T11:28:26.030Z,0.90
2023-01-19T11:29:26.011Z,0.96
2023-01-19T11:30:25.995Z,0.92
2023-01-19T11:31:26.105Z,0.96
2023-01-19T11:32:25.970Z,1.00
2023-01-19T11:33:26.177Z,1.08
2023-01-19T11:34:25.971Z,1.16
2023-01-19T11:35:25.931Z,1.19
2023-01-19T11:36:25.921Z,1.25
2023-01-19T11:37:25.923Z,1.32
2023-01-19T11:38:25.880Z,1.39
2023-01-19T11:39:25.898Z,1.44
2023-01-19T11:40:25.903Z,1.50
2023-01-19T11:41:25.838Z,1.54
2023-01-19T11:42:25.822Z,1.57
2023-01-19T11:43:26.846Z,1.54
2023-01-19T11:44:25.834Z,1.54
2023-01-19T11:45:25.836Z,1.54
2023-01-19T11:46:25.842Z,1.57
2023-01-19T11:47:25.792Z,1.57
2023-01-19T11:48:25.787Z,1.52
2023-01-19T11:49:25.752Z,1.50
2023-01-19T11:50:25.769Z,1.52
2023-01-19T11:51:25.716Z,1.51
2023-01-19T11:52:25.750Z,1.54
2023-01-19T11:53:25.702Z,1.54
2023-01-19T11:54:25.687Z,1.46
2023-01-19T11:55:25.698Z,1.39
2023-01-19T11:56:25.658Z,1.37
2023-01-19T11:57:25.655Z,1.39
2023-01-19T11:58:25.657Z,1.40
2023-01-19T11:59:25.615Z,1.39
2023-01-19T12:00:25.642Z,1.40
2023-01-19T12:01:25.714Z,1.34
2023-01-19T12:02:25.633Z,1.32
2023-01-19T12:03:25.648Z,1.28
2023-01-19T12:04:25.564Z,1.29
2023-01-19T12:05:25.581Z,1.33
2023-01-19T12:06:25.523Z,1.34
2023-01-19T12:07:25.540Z,1.39
2023-01-19T12:08:25.510Z,1.42
2023-01-19T12:09:25.493Z,1.36
2023-01-19T12:10:25.496Z,1.36
2023-01-19T12:11:25.494Z,1.39
2023-01-19T12:12:25.466Z,1.42
2023-01-19T12:13:25.436Z,1.46
2023-01-19T12:14:25.436Z,1.51
2023-01-19T12:15:25.446Z,1.57
2023-01-19T12:16:25.425Z,1.60
2023-01-19T12:17:25.395Z,1.68
2023-01-19T12:18:25.402Z,1.72
2023-01-19T12:19:25.372Z,1.76
2023-01-19T12:20:25.379Z,1.76
2023-01-19T12:21:25.358Z,1.80
2023-01-19T12:22:25.333Z,1.89
2023-01-19T12:23:25.348Z,1.94
2023-01-19T12:24:25.333Z,1.93
2023-01-19T12:25:25.315Z,1.85
2023-01-19T12:26:25.288Z,1.87
2023-01-19T12:27:25.273Z,1.80
2023-01-19T12:28:25.262Z,1.80
2023-01-19T12:29:25.241Z,1.82
2023-01-19T12:30:25.257Z,1.90
2023-01-19T12:31:25.360Z,1.94
2023-01-19T12:32:25.240Z,1.99
2023-01-19T12:33:25.220Z,1.98
2023-01-19T12:34:25.187Z,1.98
2023-01-19T12:35:25.165Z,1.97
2023-01-19T12:36:25.200Z,1.94
2023-01-19T12:37:25.135Z,1.91
2023-01-19T12:38:25.134Z,1.87
2023-01-19T12:39:25.114Z,1.87
2023-01-19T12:40:25.134Z,1.87
2023-01-19T12:41:25.109Z,1.87
2023-01-19T12:42:25.110Z,1.87
2023-01-19T12:43:25.066Z,1.85
2023-01-19T12:44:25.067Z,1.87
2023-01-19T12:45:25.037Z,1.80
2023-01-19T12:46:25.113Z,1.79
2023-01-19T12:47:25.004Z,1.76
2023-01-19T12:48:25.045Z,1.76
2023-01-19T12:49:25.008Z,1.76
2023-01-19T12:50:24.985Z,1.76
2023-01-19T12:51:24.983Z,1.76
2023-01-19T12:52:24.959Z,1.76
2023-01-19T12:53:24.954Z,1.75
2023-01-19T12:54:24.923Z,1.72
2023-01-19T12:55:24.918Z,1.68
2023-01-19T12:56:24.913Z,1.64
2023-01-19T12:57:24.881Z,1.61
2023-01-19T12:58:24.896Z,1.61
2023-01-19T12:59:24.856Z,1.61
2023-01-19T13:00:24.853Z,1.61
2023-01-19T13:01:24.960Z,1.61
2023-01-19T13:02:24.878Z,1.62
2023-01-19T13:03:24.820Z,1.65
2023-01-19T13:04:24.806Z,1.68
2023-01-19T13:05:24.792Z,1.72
2023-01-19T13:06:24.776Z,1.85
2023-01-19T13:07:24.769Z,2.28
2023-01-19T13:08:24.755Z,2.58
2023-01-19T13:09:24.753Z,3.05
2023-01-19T13:10:24.736Z,3.83
2023-01-19T13:11:27.099Z,4.70
2023-01-19T13:12:24.712Z,4.91
2023-01-19T13:13:24.686Z,4.92
2023-01-19T13:14:24.856Z,5.25
2023-01-19T13:15:24.669Z,5.14
2023-01-19T13:16:24.682Z,5.43
2023-01-19T13:17:24.638Z,6.51
2023-01-19T13:18:24.631Z,6.90
2023-01-19T13:19:24.616Z,7.19
2023-01-19T13:20:24.617Z,6.80
2023-01-19T13:21:24.606Z,6.66
2023-01-19T13:22:24.565Z,6.69
2023-01-19T13:23:24.568Z,6.21
2023-01-19T13:24:24.581Z,5.40
2023-01-19T13:25:24.557Z,4.64
2023-01-19T13:26:24.570Z,4.00
2023-01-19T13:27:24.528Z,3.71
2023-01-19T13:28:24.496Z,3.49